createdAt,value
2023-04-17T00:00:09.753Z,84.73
2023-04-17T00:01:09.775Z,84.72
2023-04-17T00:02:09.770Z,84.78
2023-04-17T00:03:10.046Z,84.85
2023-04-17T00:04:09.977Z,84.87
2023-04-17T00:05:09.774Z,84.91
2023-04-17T00:06:09.685Z,84.94
2023-04-17T00:07:09.720Z,84.90
2023-04-17T00:08:09.700Z,84.82
2023-04-17T00:09:10.004Z,84.74
2023-04-17T00:10:09.696Z,84.66
2023-04-17T00:11:09.669Z,84.62
2023-04-17T00:12:09.639Z,84.54
2023-04-17T00:13:09.648Z,84.49
2023-04-17T00:14:09.621Z,84.46
2023-04-17T00:15:09.602Z,84.44
2023-04-17T00:16:09.641Z,84.37
2023-04-17T00:17:09.581Z,84.27
2023-04-17T00:18:09.572Z,84.22
2023-04-17T00:19:09.745Z,84.26
2023-04-17T00:20:09.660Z,84.30
2023-04-17T00:21:09.519Z,84.29
2023-04-17T00:22:09.569Z,84.28
2023-04-17T00:23:09.529Z,84.19
2023-04-17T00:24:09.529Z,84.07
2023-04-17T00:25:09.549Z,84.00
2023-04-17T00:26:09.487Z,83.95
2023-04-17T00:27:09.458Z,83.93
2023-04-17T00:28:09.454Z,83.99
2023-04-17T00:29:09.593Z,84.05
2023-04-17T00:30:09.454Z,84.01
2023-04-17T00:31:09.409Z,83.99
2023-04-17T00:32:09.481Z,84.01
2023-04-17T00:33:09.423Z,83.99
2023-04-17T00:34:09.403Z,83.83
2023-04-17T00:35:09.390Z,83.76
2023-04-17T00:36:09.391Z,83.77
2023-04-17T00:37:09.355Z,83.72
2023-04-17T00:38:09.346Z,83.74
2023-04-17T00:39:09.482Z,83.74
2023-04-17T00:40:09.334Z,83.67
2023-04-17T00:41:09.326Z,83.61
2023-04-17T00:42:09.299Z,83.57
2023-04-17T00:43:09.294Z,83.56
2023-04-17T00:44:09.319Z,83.58
2023-04-17T00:45:09.287Z,83.53
2023-04-17T00:46:09.300Z,83.42
2023-04-17T00:47:09.328Z,83.36
2023-04-17T00:48:09.246Z,83.23
2023-04-17T00:49:09.317Z,83.25
2023-04-17T00:50:09.238Z,83.22
2023-04-17T00:51:09.197Z,83.23
2023-04-17T00:52:09.247Z,83.26
2023-04-17T00:53:09.172Z,83.33
2023-04-17T00:54:09.234Z,83.39
2023-04-17T00:55:09.166Z,83.33
2023-04-17T00:56:09.147Z,83.29
2023-04-17T00:57:09.126Z,83.32
2023-04-17T00:58:09.134Z,83.22
2023-04-17T00:59:09.284Z,83.22
2023-04-17T01:00:09.126Z,83.20
2023-04-17T01:01:09.102Z,83.21
2023-04-17T01:02:09.150Z,83.21
2023-04-17T01:03:09.262Z,83.19
2023-04-17T01:04:09.195Z,83.09
2023-04-17T01:05:09.101Z,83.04
2023-04-17T01:06:09.048Z,83.09
2023-04-17T01:07:09.027Z,83.02
2023-04-17T01:08:09.066Z,82.94
2023-04-17T01:09:09.038Z,82.89
2023-04-17T01:10:09.064Z,82.82
2023-04-17T01:11:09.049Z,82.82
2023-04-17T01:12:08.982Z,82.89
2023-04-17T01:13:09.054Z,82.92
2023-04-17T01:14:08.946Z,82.93
2023-04-17T01:15:08.977Z,82.89
2023-04-17T01:16:08.966Z,82.85
2023-04-17T01:17:08.997Z,82.88
2023-04-17T01:18:08.935Z,82.89
2023-04-17T01:19:09.180Z,82.89
2023-04-17T01:20:08.899Z,82.86
2023-04-17T01:21:08.990Z,82.80
2023-04-17T01:22:08.890Z,82.74
2023-04-17T01:23:08.857Z,82.66
2023-04-17T01:24:08.836Z,82.65
2023-04-17T01:25:08.914Z,82.68
2023-04-17T01:26:08.828Z,82.68
2023-04-17T01:27:08.802Z,82.71
2023-04-17T01:28:08.835Z,82.73
2023-04-17T01:29:08.875Z,82.89
2023-04-17T01:30:08.772Z,82.90
2023-04-17T01:31:08.967Z,82.79
2023-04-17T01:32:08.754Z,82.75
2023-04-17T01:33:08.837Z,82.76
2023-04-17T01:34:08.725Z,82.80
2023-04-17T01:35:08.766Z,82.85
2023-04-17T01:36:08.728Z,82.81
2023-04-17T01:37:08.699Z,82.87
2023-04-17T01:38:08.698Z,82.89
2023-04-17T01:39:08.678Z,82.94
2023-04-17T01:40:08.661Z,82.87
2023-04-17T01:41:08.680Z,82.89
2023-04-17T01:42:08.640Z,82.85
2023-04-17T01:43:08.738Z,82.81
2023-04-17T01:44:08.611Z,82.86
2023-04-17T01:45:08.607Z,82.87
2023-04-17T01:46:08.660Z,82.83
2023-04-17T01:47:08.588Z,82.83
2023-04-17T01:48:08.576Z,82.79
2023-04-17T01:49:08.582Z,82.84
2023-04-17T01:50:08.572Z,82.85
2023-04-17T01:51:08.574Z,82.81
2023-04-17T01:52:08.541Z,82.80
2023-04-17T01:53:08.592Z,82.87
2023-04-17T01:54:08.513Z,82.94
2023-04-17T01:55:08.517Z,82.98
2023-04-17T01:56:08.557Z,82.98
2023-04-17T01:57:08.495Z,83.01
2023-04-17T01:58:08.453Z,83.13
2023-04-17T01:59:08.511Z,83.16
2023-04-17T02:00:08.452Z,83.24
2023-04-17T02:01:08.504Z,83.27
2023-04-17T02:02:08.550Z,83.31
2023-04-17T02:03:08.541Z,83.30
2023-04-17T02:04:08.559Z,83.35
2023-04-17T02:05:08.375Z,83.36
2023-04-17T02:06:08.399Z,83.36
2023-04-17T02:07:08.360Z,83.40
2023-04-17T02:08:08.348Z,83.48
2023-04-17T02:09:08.445Z,83.56
2023-04-17T02:10:08.342Z,83.62
2023-04-17T02:11:08.388Z,83.68
2023-04-17T02:12:08.339Z,83.69
2023-04-17T02:13:08.306Z,83.67
2023-04-17T02:14:08.381Z,83.61
2023-04-17T02:15:08.264Z,83.59
2023-04-17T02:16:08.398Z,83.63
2023-04-17T02:17:08.257Z,83.71
2023-04-17T02:18:08.342Z,83.72
2023-04-17T02:19:08.226Z,83.74
2023-04-17T02:20:08.232Z,83.74
2023-04-17T02:21:08.315Z,83.84
2023-04-17T02:22:08.200Z,83.90
2023-04-17T02:23:08.231Z,83.91
2023-04-17T02:24:08.174Z,83.90
2023-04-17T02:25:08.165Z,83.97
2023-04-17T02:26:08.178Z,84.01
2023-04-17T02:27:08.161Z,84.02
2023-04-17T02:28:08.143Z,84.00
2023-04-17T02:29:08.134Z,83.94
2023-04-17T02:30:08.199Z,83.90
2023-04-17T02:31:08.223Z,83.91
2023-04-17T02:32:08.078Z,83.94
2023-04-17T02:33:08.272Z,83.88
2023-04-17T02:34:08.061Z,83.82
2023-04-17T02:35:08.073Z,83.87
2023-04-17T02:36:08.106Z,83.79
2023-04-17T02:37:08.057Z,83.65
2023-04-17T02:38:08.023Z,83.59
2023-04-17T02:39:08.022Z,83.57
2023-04-17T02:40:08.006Z,83.53
2023-04-17T02:41:08.026Z,83.54
2023-04-17T02:42:08.021Z,83.50
2023-04-17T02:43:07.999Z,83.50
2023-04-17T02:44:07.954Z,83.55
2023-04-17T02:45:07.986Z,83.57
2023-04-17T02:46:08.060Z,83.59
2023-04-17T02:47:07.934Z,83.57
2023-04-17T02:48:07.917Z,83.58
2023-04-17T02:49:07.918Z,83.56
2023-04-17T02:50:07.929Z,83.57
2023-04-17T02:51:07.964Z,83.50
2023-04-17T02:52:07.890Z,83.42
2023-04-17T02:53:07.866Z,83.48
2023-04-17T02:54:07.846Z,83.52
2023-04-17T02:55:07.948Z,83.58
2023-04-17T02:56:07.852Z,83.54
2023-04-17T02:57:07.837Z,83.48
2023-04-17T02:58:07.866Z,83.50
2023-04-17T02:59:07.794Z,83.47
2023-04-17T03:00:07.798Z,83.37
2023-04-17T03:01:07.837Z,83.33
2023-04-17T03:02:07.811Z,83.34
2023-04-17T03:03:07.895Z,83.34
2023-04-17T03:04:07.858Z,83.38
2023-04-17T03:05:07.738Z,83.49
2023-04-17T03:06:07.723Z,83.41
2023-04-17T03:07:07.828Z,83.28
2023-04-17T03:08:07.736Z,83.23
2023-04-17T03:09:07.703Z,83.32
2023-04-17T03:10:07.686Z,83.34
2023-04-17T03:11:07.812Z,83.37
2023-04-17T03:12:07.676Z,83.36
2023-04-17T03:13:07.666Z,83.35
2023-04-17T03:14:07.685Z,83.34
2023-04-17T03:15:08.851Z,83.29
2023-04-17T03:16:07.757Z,83.30
2023-04-17T03:17:07.611Z,83.32
2023-04-17T03:18:07.697Z,83.33
2023-04-17T03:19:07.607Z,83.31
2023-04-17T03:20:07.697Z,83.36
2023-04-17T03:21:07.604Z,83.34
2023-04-17T03:22:07.572Z,83.31
2023-04-17T03:23:07.594Z,83.30
2023-04-17T03:24:07.732Z,83.30
2023-04-17T03:25:07.512Z,83.24
2023-04-17T03:26:07.547Z,83.22
2023-04-17T03:27:07.502Z,83.21
2023-04-17T03:28:07.466Z,83.19
2023-04-17T03:29:07.566Z,83.18
2023-04-17T03:30:07.470Z,83.22
2023-04-17T03:31:07.492Z,83.24
2023-04-17T03:32:07.549Z,83.13
2023-04-17T03:33:07.493Z,83.09
2023-04-17T03:34:07.428Z,83.11
2023-04-17T03:35:07.467Z,83.06
2023-04-17T03:36:07.537Z,83.02
2023-04-17T03:37:07.418Z,83.06
2023-04-17T03:38:07.415Z,83.01
2023-04-17T03:39:07.412Z,83.01
2023-04-17T03:40:07.369Z,82.95
2023-04-17T03:41:07.373Z,82.97
2023-04-17T03:42:07.359Z,82.97
2023-04-17T03:43:07.310Z,83.01
2023-04-17T03:44:07.310Z,83.01
2023-04-17T03:45:07.294Z,83.04
2023-04-17T03:46:07.338Z,83.05
2023-04-17T03:47:07.324Z,83.00
2023-04-17T03:48:07.384Z,82.94
2023-04-17T03:49:07.303Z,83.01
2023-04-17T03:50:07.251Z,83.05
2023-04-17T03:51:07.387Z,83.05
2023-04-17T03:52:07.226Z,83.11
2023-04-17T03:53:07.231Z,83.07
2023-04-17T03:54:07.209Z,83.12
2023-04-17T03:55:07.176Z,83.22
2023-04-17T03:56:07.169Z,83.27
2023-04-17T03:57:07.324Z,83.22
2023-04-17T03:58:07.156Z,83.18
2023-04-17T03:59:07.136Z,83.19
2023-04-17T04:00:07.148Z,83.25
2023-04-17T04:01:07.181Z,83.25
2023-04-17T04:02:07.236Z,83.22
2023-04-17T04:03:07.385Z,83.23
2023-04-17T04:05:07.087Z,83.24
2023-04-17T04:06:07.074Z,83.24
2023-04-17T04:07:07.087Z,83.36
2023-04-17T04:08:07.046Z,83.42
2023-04-17T04:09:07.027Z,83.41
2023-04-17T04:10:07.033Z,83.36
2023-04-17T04:11:07.005Z,83.22
2023-04-17T04:12:07.020Z,83.18
2023-04-17T04:13:06.998Z,83.21
2023-04-17T04:14:06.986Z,83.21
2023-04-17T04:15:06.964Z,83.09
2023-04-17T04:16:06.994Z,83.11
2023-04-17T04:17:07.026Z,83.20
2023-04-17T04:18:06.986Z,83.27
2023-04-17T04:19:06.923Z,83.30
2023-04-17T04:20:06.931Z,83.31
2023-04-17T04:21:06.941Z,83.25
2023-04-17T04:22:07.122Z,83.23
2023-04-17T04:23:06.986Z,83.21
2023-04-17T04:24:06.893Z,83.22
2023-04-17T04:25:06.861Z,83.25
2023-04-17T04:26:06.890Z,83.31
2023-04-17T04:27:06.838Z,83.32
2023-04-17T04:28:06.860Z,83.37
2023-04-17T04:29:06.810Z,83.38
2023-04-17T04:30:06.854Z,83.48
2023-04-17T04:31:06.839Z,83.47
2023-04-17T04:32:06.784Z,83.52
2023-04-17T04:33:06.806Z,83.52
2023-04-17T04:34:06.766Z,83.52
2023-04-17T04:35:06.823Z,83.48
2023-04-17T04:36:06.736Z,83.42
2023-04-17T04:37:06.761Z,83.35
2023-04-17T04:38:06.840Z,83.37
2023-04-17T04:39:06.693Z,83.46
2023-04-17T04:40:06.710Z,83.49
2023-04-17T04:41:06.782Z,83.43
2023-04-17T04:42:06.657Z,83.45
2023-04-17T04:43:06.855Z,83.53
2023-04-17T04:44:06.646Z,83.55
2023-04-17T04:45:06.651Z,83.56
2023-04-17T04:46:06.617Z,83.38
2023-04-17T04:47:06.846Z,83.30
2023-04-17T04:48:06.695Z,83.26
2023-04-17T04:49:06.619Z,83.21
2023-04-17T04:50:06.564Z,83.23
2023-04-17T04:51:06.577Z,83.15
2023-04-17T04:52:06.566Z,83.09
2023-04-17T04:53:06.531Z,83.05
2023-04-17T04:54:06.554Z,82.87
2023-04-17T04:55:06.520Z,82.77
2023-04-17T04:56:06.520Z,82.80
2023-04-17T04:57:06.494Z,82.87
2023-04-17T04:58:06.505Z,82.85
2023-04-17T04:59:06.551Z,82.88
2023-04-17T05:00:06.640Z,82.93
2023-04-17T05:01:06.533Z,82.95
2023-04-17T05:02:06.552Z,82.90
2023-04-17T05:03:06.679Z,82.84
2023-04-17T05:04:06.603Z,82.84
2023-04-17T05:05:06.525Z,82.88
2023-04-17T05:06:06.488Z,82.81
2023-04-17T05:07:06.393Z,82.81
2023-04-17T05:08:06.458Z,82.86
2023-04-17T05:09:06.372Z,82.85
2023-04-17T05:10:06.355Z,82.82
2023-04-17T05:11:06.340Z,82.75
2023-04-17T05:12:06.338Z,82.77
2023-04-17T05:13:06.389Z,82.75
2023-04-17T05:14:06.317Z,82.74
2023-04-17T05:15:06.316Z,82.73
2023-04-17T05:16:06.387Z,82.53
2023-04-17T05:17:06.299Z,82.39
2023-04-17T05:18:06.372Z,82.34
2023-04-17T05:19:06.358Z,82.39
2023-04-17T05:20:06.253Z,82.54
2023-04-17T05:21:06.252Z,82.72
2023-04-17T05:22:06.251Z,82.72
2023-04-17T05:23:06.241Z,82.52
2023-04-17T05:24:06.203Z,82.36
2023-04-17T05:25:06.268Z,82.45
2023-04-17T05:26:06.192Z,82.52
2023-04-17T05:27:06.176Z,82.54
2023-04-17T05:28:06.192Z,82.58
2023-04-17T05:29:06.153Z,82.63
2023-04-17T05:30:06.247Z,82.54
2023-04-17T05:31:06.169Z,82.43
2023-04-17T05:32:06.181Z,82.45
2023-04-17T05:33:06.178Z,82.59
2023-04-17T05:34:06.147Z,82.70
2023-04-17T05:35:06.101Z,82.73
2023-04-17T05:36:06.071Z,82.78
2023-04-17T05:37:06.068Z,82.82
2023-04-17T05:38:06.089Z,82.75
2023-04-17T05:39:06.094Z,82.68
2023-04-17T05:40:06.025Z,82.65
2023-04-17T05:41:06.023Z,82.71
2023-04-17T05:42:06.004Z,82.77
2023-04-17T05:43:06.014Z,82.74
2023-04-17T05:44:06.032Z,82.80
2023-04-17T05:45:05.979Z,82.90
2023-04-17T05:46:06.037Z,83.00
2023-04-17T05:47:05.958Z,83.02
2023-04-17T05:48:05.974Z,82.98
2023-04-17T05:49:05.951Z,82.98
2023-04-17T05:50:05.946Z,82.90
2023-04-17T05:51:05.925Z,82.84
2023-04-17T05:52:05.911Z,82.83
2023-04-17T05:53:05.890Z,82.81
2023-04-17T05:54:05.913Z,82.82
2023-04-17T05:55:05.852Z,82.78
2023-04-17T05:56:05.862Z,82.80
2023-04-17T05:57:05.897Z,82.76
2023-04-17T05:58:16.883Z,82.67
2023-04-17T05:59:06.884Z,82.59
2023-04-17T06:00:05.809Z,82.52
2023-04-17T06:01:05.826Z,82.42
2023-04-17T06:02:05.941Z,82.52
2023-04-17T06:03:05.948Z,82.67
2023-04-17T06:04:05.996Z,82.79
2023-04-17T06:05:05.894Z,82.87
2023-04-17T06:06:05.744Z,82.88
2023-04-17T06:07:05.740Z,82.83
2023-04-17T06:08:05.728Z,82.81
2023-04-17T06:09:05.724Z,82.78
2023-04-17T06:10:05.778Z,82.77
2023-04-17T06:11:05.703Z,82.75
2023-04-17T06:12:05.681Z,82.75
2023-04-17T06:13:06.000Z,82.59
2023-04-17T06:14:05.662Z,82.54
2023-04-17T06:15:06.492Z,82.42
2023-04-17T06:16:05.641Z,82.32
2023-04-17T06:17:05.674Z,82.32
2023-04-17T06:18:05.675Z,82.34
2023-04-17T06:19:05.651Z,82.48
2023-04-17T06:20:05.637Z,82.57
2023-04-17T06:21:05.648Z,82.60
2023-04-17T06:22:05.578Z,82.64
2023-04-17T06:23:05.564Z,82.63
2023-04-17T06:24:05.627Z,82.63
2023-04-17T06:25:05.570Z,82.54
2023-04-17T06:26:05.528Z,82.55
2023-04-17T06:27:05.516Z,82.44
2023-04-17T06:28:05.525Z,82.35
2023-04-17T06:29:05.500Z,82.37
2023-04-17T06:30:05.512Z,82.49
2023-04-17T06:31:05.629Z,82.59
2023-04-17T06:32:05.479Z,82.71
2023-04-17T06:33:05.515Z,82.68
2023-04-17T06:34:05.484Z,82.67
2023-04-17T06:35:05.453Z,82.65
2023-04-17T06:36:05.530Z,82.58
2023-04-17T06:37:05.408Z,82.62
2023-04-17T06:38:05.438Z,82.62
2023-04-17T06:39:05.398Z,82.65
2023-04-17T06:40:05.400Z,82.62
2023-04-17T06:41:05.365Z,82.58
2023-04-17T06:42:05.356Z,82.56
2023-04-17T06:43:05.379Z,82.54
2023-04-17T06:44:05.335Z,82.54
2023-04-17T06:45:05.336Z,82.62
2023-04-17T06:46:05.355Z,82.51
2023-04-17T06:47:05.344Z,82.48
2023-04-17T06:48:05.340Z,82.53
2023-04-17T06:49:05.342Z,82.62
2023-04-17T06:50:05.274Z,82.57
2023-04-17T06:51:05.265Z,82.60
2023-04-17T06:52:05.268Z,82.73
2023-04-17T06:53:05.318Z,82.73
2023-04-17T06:54:05.225Z,82.74
2023-04-17T06:55:05.270Z,82.73
2023-04-17T06:56:05.206Z,82.68
2023-04-17T06:57:05.194Z,82.70
2023-04-17T06:58:05.199Z,82.67
2023-04-17T06:59:05.184Z,82.61
2023-04-17T07:00:05.180Z,82.67
2023-04-17T07:01:05.235Z,82.76
2023-04-17T07:02:05.243Z,82.83
2023-04-17T07:03:05.266Z,82.83
2023-04-17T07:04:05.197Z,82.80
2023-04-17T07:05:05.134Z,82.88
2023-04-17T07:06:05.101Z,82.92
2023-04-17T07:07:05.160Z,82.94
2023-04-17T07:08:05.063Z,82.89
2023-04-17T07:09:05.071Z,82.89
2023-04-17T07:10:05.048Z,82.90
2023-04-17T07:11:05.060Z,82.77
2023-04-17T07:12:05.085Z,82.74
2023-04-17T07:13:05.016Z,82.79
2023-04-17T07:14:05.009Z,82.88
2023-04-17T07:15:05.196Z,82.94
2023-04-17T07:16:05.154Z,82.96
2023-04-17T07:17:04.976Z,82.92
2023-04-17T07:18:05.075Z,82.95
2023-04-17T07:19:04.986Z,82.98
2023-04-17T07:20:04.962Z,83.00
2023-04-17T07:21:04.920Z,82.93
2023-04-17T07:22:04.911Z,82.93
2023-04-17T07:23:04.904Z,82.85
2023-04-17T07:24:04.930Z,82.68
2023-04-17T07:25:04.895Z,82.72
2023-04-17T07:26:04.873Z,82.70
2023-04-17T07:27:04.879Z,82.80
2023-04-17T07:28:04.889Z,82.81
2023-04-17T07:29:04.875Z,82.81
2023-04-17T07:30:04.891Z,82.83
2023-04-17T07:31:04.922Z,82.77
2023-04-17T07:32:04.816Z,82.72
2023-04-17T07:33:04.829Z,82.74
2023-04-17T07:34:04.783Z,82.73
2023-04-17T07:35:04.788Z,82.65
2023-04-17T07:36:04.787Z,82.68
2023-04-17T07:37:04.763Z,82.71
2023-04-17T07:38:04.763Z,82.72
2023-04-17T07:39:04.734Z,82.77
2023-04-17T07:40:04.713Z,82.72
2023-04-17T07:41:04.724Z,82.60
2023-04-17T07:42:04.704Z,82.52
2023-04-17T07:43:04.709Z,82.54
2023-04-17T07:44:04.677Z,82.49
2023-04-17T07:45:04.650Z,82.54
2023-04-17T07:46:04.680Z,82.53
2023-04-17T07:47:04.680Z,82.44
2023-04-17T07:48:04.644Z,82.35
2023-04-17T07:49:04.731Z,82.42
2023-04-17T07:50:04.611Z,82.49
2023-04-17T07:51:04.635Z,82.49
2023-04-17T07:52:04.644Z,82.51
2023-04-17T07:53:04.582Z,82.65
2023-04-17T07:54:04.571Z,82.70
2023-04-17T07:55:04.654Z,82.66
2023-04-17T07:56:04.556Z,82.61
2023-04-17T07:57:04.531Z,82.52
2023-04-17T07:58:04.524Z,82.47
2023-04-17T07:59:04.543Z,82.48
2023-04-17T08:00:04.494Z,82.48
2023-04-17T08:01:04.506Z,82.50
2023-04-17T08:02:04.671Z,82.55
2023-04-17T08:03:04.658Z,82.56
2023-04-17T08:04:04.615Z,82.39
2023-04-17T08:05:04.495Z,82.37
2023-04-17T08:06:04.457Z,82.37
2023-04-17T08:07:04.423Z,82.31
2023-04-17T08:08:04.461Z,82.36
2023-04-17T08:09:04.473Z,82.37
2023-04-17T08:10:04.393Z,82.42
2023-04-17T08:11:04.377Z,82.37
2023-04-17T08:12:04.394Z,82.39
2023-04-17T08:13:04.383Z,82.44
2023-04-17T08:14:04.374Z,82.46
2023-04-17T08:15:04.399Z,82.47
2023-04-17T08:16:04.346Z,82.54
2023-04-17T08:17:04.570Z,82.46
2023-04-17T08:18:04.401Z,82.41
2023-04-17T08:19:04.326Z,82.44
2023-04-17T08:20:04.291Z,82.53
2023-04-17T08:21:04.268Z,82.55
2023-04-17T08:22:04.288Z,82.55
2023-04-17T08:23:04.258Z,82.55
2023-04-17T08:24:04.239Z,82.52
2023-04-17T08:25:04.254Z,82.53
2023-04-17T08:26:04.223Z,82.64
2023-04-17T08:27:04.275Z,82.68
2023-04-17T08:28:04.196Z,82.56
2023-04-17T08:29:04.227Z,82.43
2023-04-17T08:30:04.179Z,82.44
2023-04-17T08:31:04.243Z,82.47
2023-04-17T08:32:13.490Z,82.43
2023-04-17T08:33:05.214Z,82.41
2023-04-17T08:34:13.589Z,82.48
2023-04-17T08:35:05.181Z,82.51
2023-04-17T08:36:06.467Z,82.47
2023-04-17T08:37:04.088Z,82.42
2023-04-17T08:38:04.170Z,82.37
2023-04-17T08:39:04.069Z,82.36
2023-04-17T08:40:04.141Z,82.36
2023-04-17T08:41:04.065Z,82.39
2023-04-17T08:42:04.062Z,82.45
2023-04-17T08:43:04.072Z,82.57
2023-04-17T08:44:04.030Z,82.59
2023-04-17T08:45:04.003Z,82.57
2023-04-17T08:46:04.073Z,82.50
2023-04-17T08:47:03.977Z,82.42
2023-04-17T08:48:04.095Z,82.41
2023-04-17T08:49:12.020Z,82.40
2023-04-17T08:50:03.945Z,82.42
2023-04-17T08:51:03.946Z,82.44
2023-04-17T08:52:03.936Z,82.49
2023-04-17T08:53:03.919Z,82.54
2023-04-17T08:54:03.908Z,82.52
2023-04-17T08:55:03.946Z,82.56
2023-04-17T08:56:05.235Z,82.58
2023-04-17T08:57:03.907Z,82.40
2023-04-17T08:58:03.945Z,82.34
2023-04-17T08:59:03.849Z,82.37
2023-04-17T09:00:03.850Z,82.42
2023-04-17T09:01:03.881Z,82.50
2023-04-17T09:02:04.047Z,82.54
2023-04-17T09:03:04.097Z,82.51
2023-04-17T09:04:04.051Z,82.47
2023-04-17T09:05:03.901Z,82.42
2023-04-17T09:06:03.799Z,82.39
2023-04-17T09:07:03.782Z,82.42
2023-04-17T09:08:03.750Z,82.40
2023-04-17T09:09:03.786Z,82.38
2023-04-17T09:10:03.726Z,82.35
2023-04-17T09:11:03.733Z,82.29
2023-04-17T09:12:03.747Z,82.31
2023-04-17T09:13:03.712Z,82.38
2023-04-17T09:14:03.688Z,82.37
2023-04-17T09:15:03.678Z,82.37
2023-04-17T09:16:03.724Z,82.43
2023-04-17T09:17:03.678Z,82.41
2023-04-17T09:18:03.726Z,82.39
2023-04-17T09:19:03.643Z,82.36
2023-04-17T09:20:03.623Z,82.20
2023-04-17T09:21:03.607Z,81.99
2023-04-17T09:22:03.797Z,81.86
2023-04-17T09:23:03.616Z,81.89
2023-04-17T09:24:03.591Z,81.91
2023-04-17T09:25:03.602Z,81.79
2023-04-17T09:26:03.553Z,81.67
2023-04-17T09:27:03.546Z,81.56
2023-04-17T09:28:03.583Z,81.53
2023-04-17T09:29:03.545Z,81.54
2023-04-17T09:30:03.565Z,81.41
2023-04-17T09:31:03.525Z,81.43
2023-04-17T09:32:03.563Z,81.45
2023-04-17T09:33:03.541Z,81.52
2023-04-17T09:34:03.468Z,81.48
2023-04-17T09:35:03.470Z,81.48
2023-04-17T09:36:03.451Z,81.53
2023-04-17T09:37:03.453Z,81.50
2023-04-17T09:38:03.444Z,81.49
2023-04-17T09:39:03.416Z,81.53
2023-04-17T09:40:03.424Z,81.54
2023-04-17T09:41:03.395Z,81.53
2023-04-17T09:42:04.128Z,81.52
2023-04-17T09:43:03.382Z,81.55
2023-04-17T09:44:03.379Z,81.60
2023-04-17T09:45:03.357Z,81.52
2023-04-17T09:46:03.338Z,81.41
2023-04-17T09:47:03.541Z,81.35
2023-04-17T09:48:03.388Z,81.37
2023-04-17T09:49:03.320Z,81.40
2023-04-17T09:50:03.332Z,81.42
2023-04-17T09:51:03.279Z,81.37
2023-04-17T09:52:03.266Z,81.09
2023-04-17T09:53:03.297Z,80.98
2023-04-17T09:54:03.283Z,80.99
2023-04-17T09:55:03.239Z,80.99
2023-04-17T09:56:03.257Z,80.96
2023-04-17T09:57:03.222Z,80.87
2023-04-17T09:58:03.210Z,80.81
2023-04-17T09:59:03.189Z,80.80
2023-04-17T10:00:03.231Z,80.79
2023-04-17T10:01:03.276Z,80.78
2023-04-17T10:02:03.319Z,80.73
2023-04-17T10:03:03.316Z,80.74
2023-04-17T10:04:03.271Z,80.82
2023-04-17T10:05:03.129Z,80.86
2023-04-17T10:06:03.130Z,80.86
2023-04-17T10:07:03.113Z,80.83
2023-04-17T10:08:03.124Z,80.86
2023-04-17T10:09:03.102Z,80.94
2023-04-17T10:10:03.112Z,80.93
2023-04-17T10:11:03.060Z,80.91
2023-04-17T10:12:03.045Z,80.92
2023-04-17T10:13:03.079Z,80.96
2023-04-17T10:14:03.022Z,81.09
2023-04-17T10:15:03.017Z,81.12
2023-04-17T10:16:03.116Z,81.15
2023-04-17T10:17:03.039Z,81.18
2023-04-17T10:18:03.020Z,81.17
2023-04-17T10:19:02.977Z,81.14
2023-04-17T10:20:02.968Z,81.13
2023-04-17T10:21:03.715Z,81.13
2023-04-17T10:22:03.050Z,81.11
2023-04-17T10:23:02.960Z,81.05
2023-04-17T10:24:02.933Z,81.01
2023-04-17T10:25:02.913Z,80.99
2023-04-17T10:26:02.915Z,80.99
2023-04-17T10:27:02.882Z,80.99
2023-04-17T10:28:02.871Z,81.00
2023-04-17T10:29:02.891Z,81.02
2023-04-17T10:30:02.879Z,81.07
2023-04-17T10:31:02.859Z,81.10
2023-04-17T10:32:02.892Z,81.03
2023-04-17T10:33:02.885Z,80.95
2023-04-17T10:34:02.838Z,80.89
2023-04-17T10:35:02.824Z,80.81
2023-04-17T10:36:02.815Z,80.75
2023-04-17T10:37:02.933Z,80.71
2023-04-17T10:38:02.771Z,80.70
2023-04-17T10:39:02.764Z,80.70
2023-04-17T10:40:02.791Z,80.72
2023-04-17T10:41:02.729Z,80.75
2023-04-17T10:42:02.806Z,80.79
2023-04-17T10:43:02.719Z,80.86
2023-04-17T10:44:02.709Z,80.90
2023-04-17T10:45:02.721Z,80.94
2023-04-17T10:46:02.859Z,80.98
2023-04-17T10:47:02.665Z,81.01
2023-04-17T10:48:02.729Z,81.02
2023-04-17T10:49:02.646Z,81.04
2023-04-17T10:50:02.674Z,81.05
2023-04-17T10:51:02.632Z,81.06
2023-04-17T10:52:02.612Z,81.10
2023-04-17T10:53:02.604Z,81.11
2023-04-17T10:54:02.594Z,81.12
2023-04-17T10:55:02.577Z,81.12
2023-04-17T10:56:02.605Z,81.08
2023-04-17T10:57:02.561Z,81.04
2023-04-17T10:58:02.589Z,81.00
2023-04-17T10:59:02.547Z,81.03
2023-04-17T11:00:02.540Z,81.08
2023-04-17T11:01:02.592Z,81.10
2023-04-17T11:02:02.687Z,81.16
2023-04-17T11:03:02.679Z,81.18
2023-04-17T11:04:02.568Z,81.16
2023-04-17T11:05:02.573Z,81.15
2023-04-17T11:06:02.517Z,81.08
2023-04-17T11:07:02.562Z,81.03
2023-04-17T11:08:02.466Z,80.97
2023-04-17T11:09:02.442Z,80.94
2023-04-17T11:10:02.431Z,80.89
2023-04-17T11:11:02.483Z,80.84
2023-04-17T11:12:02.543Z,80.83
2023-04-17T11:13:02.384Z,80.83
2023-04-17T11:14:02.448Z,80.80
2023-04-17T11:15:02.419Z,80.76
2023-04-17T11:16:02.372Z,80.69
2023-04-17T11:17:02.574Z,80.60
2023-04-17T11:18:02.529Z,80.55
2023-04-17T11:19:02.389Z,80.48
2023-04-17T11:20:02.314Z,80.42
2023-04-17T11:21:02.339Z,80.38
2023-04-17T11:22:02.340Z,80.30
2023-04-17T11:23:02.286Z,80.27
2023-04-17T11:24:02.274Z,80.21
2023-04-17T11:25:02.250Z,80.18
2023-04-17T11:26:02.253Z,80.16
2023-04-17T11:27:02.345Z,80.14
2023-04-17T11:28:02.231Z,80.12
2023-04-17T11:29:02.299Z,80.07
2023-04-17T11:30:02.237Z,80.05
2023-04-17T11:31:02.300Z,80.05
2023-04-17T11:32:02.230Z,80.01
2023-04-17T11:33:02.262Z,79.91
2023-04-17T11:34:02.226Z,79.83
2023-04-17T11:35:02.208Z,79.80
2023-04-17T11:36:02.197Z,79.78
2023-04-17T11:37:02.124Z,79.72
2023-04-17T11:38:02.148Z,79.63
2023-04-17T11:39:02.108Z,79.59
2023-04-17T11:40:02.218Z,79.51
2023-04-17T11:41:02.078Z,79.41
2023-04-17T11:42:02.096Z,79.29
2023-04-17T11:43:02.098Z,79.11
2023-04-17T11:44:02.039Z,78.95
2023-04-17T11:45:03.727Z,78.79
2023-04-17T11:46:02.037Z,78.60
2023-04-17T11:47:02.110Z,78.48
2023-04-17T11:48:02.035Z,78.37
2023-04-17T11:49:02.010Z,78.20
2023-04-17T11:50:01.997Z,78.14
2023-04-17T11:51:02.068Z,78.08
2023-04-17T11:52:02.039Z,78.00
2023-04-17T11:53:01.965Z,77.90
2023-04-17T11:54:01.991Z,77.90
2023-04-17T11:55:02.237Z,77.82
2023-04-17T11:56:02.012Z,77.61
2023-04-17T11:57:02.054Z,77.50
2023-04-17T11:58:02.005Z,77.43
2023-04-17T11:59:01.883Z,77.28
2023-04-17T12:00:01.909Z,77.03
2023-04-17T12:01:01.882Z,76.83
2023-04-17T12:02:02.237Z,76.70
2023-04-17T12:03:02.088Z,76.62
2023-04-17T12:04:02.100Z,76.42
2023-04-17T12:05:01.953Z,76.40
2023-04-17T12:06:02.115Z,76.31
2023-04-17T12:07:01.878Z,76.45
2023-04-17T12:08:01.834Z,76.50
2023-04-17T12:09:01.811Z,76.54
2023-04-17T12:10:01.785Z,76.52
2023-04-17T12:11:01.760Z,76.57
2023-04-17T12:12:01.765Z,76.60
2023-04-17T12:13:01.766Z,76.70
2023-04-17T12:14:01.713Z,76.74
2023-04-17T12:15:01.726Z,76.73
2023-04-17T12:16:01.913Z,76.73
2023-04-17T12:17:01.699Z,76.80
2023-04-17T12:18:01.752Z,76.89
2023-04-17T12:19:01.679Z,76.98
2023-04-17T12:20:01.652Z,77.00
2023-04-17T12:21:01.683Z,76.77
2023-04-17T12:22:01.644Z,76.21
2023-04-17T12:23:01.650Z,75.78
2023-04-17T12:24:01.636Z,75.63
2023-04-17T12:25:01.604Z,75.62
2023-04-17T12:26:01.587Z,75.70
2023-04-17T12:27:01.663Z,75.83
2023-04-17T12:28:01.595Z,75.86
2023-04-17T12:29:01.593Z,75.88
2023-04-17T12:30:01.551Z,75.86
2023-04-17T12:31:01.538Z,75.71
2023-04-17T12:32:01.643Z,75.63
2023-04-17T12:33:01.602Z,75.42
2023-04-17T12:34:01.567Z,75.37
2023-04-17T12:35:01.489Z,75.40
2023-04-17T12:36:01.505Z,75.42
2023-04-17T12:37:01.492Z,75.47
2023-04-17T12:38:01.459Z,75.55
2023-04-17T12:39:01.611Z,75.49
2023-04-17T12:40:01.434Z,75.41
2023-04-17T12:41:01.425Z,75.42
2023-04-17T12:42:01.433Z,75.43
2023-04-17T12:43:01.493Z,75.50
2023-04-17T12:44:01.561Z,75.54
2023-04-17T12:45:01.370Z,75.30
2023-04-17T12:46:01.435Z,75.27
2023-04-17T12:47:01.364Z,75.22
2023-04-17T12:48:01.454Z,75.24
2023-04-17T12:49:01.351Z,75.38
2023-04-17T12:50:01.321Z,75.44
2023-04-17T12:51:01.320Z,75.54
2023-04-17T12:52:03.527Z,75.71
2023-04-17T12:53:01.288Z,75.81